Time;durP1;ratioP1;P1;durP2;ratioP2;P2;SDS_P1;SDS_P2;PMS_P1;PMS_P2;Temp;Humidity;BMP_temperature;BMP_pressure;BME280_temperature;BME280_humidity;BME280_pressure;Samples;Min_cycle;Max_cycle;Signal;HPM_P1;HPM_P2
2021/01/29 00:00:37;;;;;;;;;;;10.40;99.90;;;;;;5004904;28;19996;-77
2021/01/29 00:03:05;;;;;;;;;;;10.30;99.90;;;;;;4998488;28;19910;-74
2021/01/29 00:05:39;;;;;;;;;;;10.30;99.90;;;;;;4995623;28;19942;-77
2021/01/29 00:08:04;;;;;;;;;;;10.20;99.90;;;;;;4995098;28;19913;-77
2021/01/29 00:10:30;;;;;;;;;;;10.10;99.90;;;;;;4995688;28;19968;-75
2021/01/29 00:12:55;;;;;;;;;;;10.10;99.90;;;;;;4996270;28;20352;-76
2021/01/29 00:15:22;;;;;;;;;;;10.10;99.90;;;;;;4995202;28;19922;-77
2021/01/29 00:17:47;;;;;;;;;;;10.00;99.90;;;;;;4992836;28;20004;-75
2021/01/29 00:20:14;;;;;;;;;;;9.90;99.90;;;;;;4993747;28;19953;-76
2021/01/29 00:22:40;;;;;;;;;;;9.90;99.90;;;;;;4997330;28;20144;-75
2021/01/29 00:25:09;;;;;;;;;;;9.90;99.90;;;;;;4996920;28;19913;-75
2021/01/29 00:27:36;;;;;;;;;;;9.80;99.90;;;;;;4996687;28;19914;-74
2021/01/29 00:30:01;;;;;;;;;;;9.80;99.90;;;;;;4997071;28;19909;-77
2021/01/29 00:32:27;;;;;;;;;;;9.70;99.90;;;;;;4999989;28;19944;-74
2021/01/29 00:34:52;;;;;;;;;;;9.60;99.90;;;;;;5000969;28;19913;-73
2021/01/29 00:37:18;;;;;;;;;;;9.50;99.90;;;;;;5003724;28;19909;-74
2021/01/29 00:39:43;;;;;;;;;;;9.50;99.90;;;;;;5012816;28;19909;-73
2021/01/29 00:42:08;;;;;;;;;;;9.40;99.90;;;;;;5007264;28;19917;-75
2021/01/29 00:44:34;;;;;;;;;;;9.40;99.90;;;;;;4995774;28;20341;-76
2021/01/29 00:46:59;;;;;;;;;;;9.40;99.90;;;;;;4997056;28;20004;-76
2021/01/29 00:49:25;;;;;;;;;;;9.40;99.90;;;;;;4996881;28;19914;-75
2021/01/29 00:51:50;;;;;;;;;;;9.50;99.90;;;;;;4998970;28;19963;-76
2021/01/29 00:54:16;;;;;;;;;;;9.50;99.90;;;;;;4997598;28;19913;-76
2021/01/29 00:58:06;;;;;;;;;;;9.60;99.90;;;;;;5126501;27;1433692;-75
2021/01/29 01:00:31;;;;;;;;;;;9.70;99.90;;;;;;5149932;27;19912;-75
2021/01/29 01:02:57;;;;;;;;;;;9.70;99.90;;;;;;5155770;27;19920;-75
2021/01/29 01:05:23;;;;;;;;;;;9.80;99.90;;;;;;5152863;27;20557;-77
2021/01/29 01:07:49;;;;;;;;;;;9.80;99.90;;;;;;5125301;27;19912;-76
2021/01/29 01:10:14;;;;;;;;;;;9.70;99.90;;;;;;5134026;27;19911;-75
2021/01/29 01:12:40;;;;;;;;;;;9.70;99.90;;;;;;5152353;27;19947;-76
2021/01/29 01:15:25;;;;;;;;;;;9.70;99.90;;;;;;5115298;27;19934;-76
2021/01/29 01:17:51;;;;;;;;;;;9.70;99.90;;;;;;5132381;27;20015;-76
2021/01/29 01:20:18;;;;;;;;;;;9.80;99.90;;;;;;5132260;27;19951;-76
2021/01/29 01:22:44;;;;;;;;;;;9.80;99.90;;;;;;5113958;27;19911;-76
2021/01/29 01:25:10;;;;;;;;;;;9.70;99.90;;;;;;5140121;27;19923;-76
2021/01/29 01:27:36;;;;;;;;;;;9.70;99.90;;;;;;5150173;27;19911;-76
2021/01/29 01:30:03;;;;;;;;;;;9.70;99.90;;;;;;5159878;27;19911;-76
2021/01/29 01:32:29;;;;;;;;;;;9.70;99.90;;;;;;5135069;27;19919;-76
2021/01/29 01:34:54;;;;;;;;;;;9.80;99.90;;;;;;5150407;27;19911;-77
2021/01/29 01:37:19;;;;;;;;;;;9.80;99.90;;;;;;5141079;27;20032;-76
2021/01/29 01:39:45;;;;;;;;;;;9.70;99.90;;;;;;5132365;27;19911;-76
2021/01/29 01:42:10;;;;;;;;;;;9.70;99.90;;;;;;5141220;27;19956;-75
2021/01/29 01:44:37;;;;;;;;;;;9.70;99.90;;;;;;5146831;27;19999;-76
2021/01/29 01:47:06;;;;;;;;;;;9.60;99.90;;;;;;5142639;27;19912;-76
2021/01/29 01:49:32;;;;;;;;;;;9.60;99.90;;;;;;5137096;27;19955;-76
2021/01/29 01:52:05;;;;;;;;;;;9.60;99.90;;;;;;5141904;27;19919;-76
2021/01/29 01:54:31;;;;;;;;;;;9.60;99.90;;;;;;5140785;27;19911;-76
2021/01/29 01:56:57;;;;;;;;;;;9.60;99.90;;;;;;5145305;27;19919;-75
2021/01/29 01:59:25;;;;;;;;;;;9.60;99.90;;;;;;5148704;27;19912;-76
2021/01/29 02:01:52;;;;;;;;;;;9.60;99.90;;;;;;5149246;27;20286;-76
2021/01/29 02:04:19;;;;;;;;;;;9.60;99.90;;;;;;5148737;27;19915;-76
2021/01/29 02:06:51;;;;;;;;;;;9.60;99.90;;;;;;5147259;27;19937;-76
2021/01/29 02:09:18;;;;;;;;;;;9.60;99.90;;;;;;5137883;27;19971;-76
2021/01/29 02:11:43;;;;;;;;;;;9.60;99.90;;;;;;5137101;27;19934;-75
2021/01/29 02:14:08;;;;;;;;;;;9.50;99.90;;;;;;5138029;27;20366;-75
2021/01/29 02:16:47;;;;;;;;;;;9.50;99.90;;;;;;5103675;27;19915;-76
2021/01/29 02:19:20;;;;;;;;;;;9.50;99.90;;;;;;5103381;28;19979;-76
2021/01/29 02:22:05;;;;;;;;;;;9.40;99.90;;;;;;5123846;27;19912;-76
2021/01/29 02:24:56;;;;;;;;;;;9.40;99.90;;;;;;5129199;27;19918;-75
2021/01/29 02:27:26;;;;;;;;;;;9.40;99.90;;;;;;5127665;27;19918;-77
2021/01/29 02:29:58;;;;;;;;;;;9.40;99.90;;;;;;5137830;27;19918;-75
2021/01/29 02:32:42;;;;;;;;;;;9.40;99.90;;;;;;5139741;27;19934;-75
2021/01/29 02:35:10;;;;;;;;;;;9.50;99.90;;;;;;5130590;27;19979;-76
2021/01/29 02:37:42;;;;;;;;;;;9.50;99.90;;;;;;5138763;27;19960;-76
2021/01/29 02:40:22;;;;;;;;;;;9.50;99.90;;;;;;5142533;27;19926;-76
2021/01/29 02:42:52;;;;;;;;;;;9.50;99.90;;;;;;5141477;27;19918;-75
2021/01/29 02:45:26;;;;;;;;;;;9.50;99.90;;;;;;5142991;27;19926;-76
2021/01/29 02:47:59;;;;;;;;;;;9.50;99.90;;;;;;5136251;27;19907;-76
2021/01/29 02:50:43;;;;;;;;;;;9.50;99.90;;;;;;5140490;27;19908;-75
2021/01/29 02:53:18;;;;;;;;;;;9.50;99.90;;;;;;5141587;27;19911;-77
2021/01/29 02:56:04;;;;;;;;;;;9.50;99.90;;;;;;5132495;27;20290;-76
2021/01/29 02:58:38;;;;;;;;;;;9.60;99.90;;;;;;5135492;27;19955;-74
2021/01/29 03:01:11;;;;;;;;;;;9.60;99.90;;;;;;5121131;27;19967;-75
2021/01/29 03:03:36;;;;;;;;;;;9.60;99.90;;;;;;5132061;27;19918;-77
2021/01/29 03:06:22;;;;;;;;;;;9.50;99.90;;;;;;5125068;27;19912;-76
2021/01/29 03:08:56;;;;;;;;;;;9.50;99.90;;;;;;5119894;27;20014;-76
2021/01/29 03:11:29;;;;;;;;;;;9.50;99.90;;;;;;5122582;27;20371;-75
2021/01/29 03:13:55;;;;;;;;;;;9.50;99.90;;;;;;5120602;27;19915;-76
2021/01/29 03:16:22;;;;;;;;;;;9.50;99.90;;;;;;5120826;27;19972;-75
2021/01/29 03:18:55;;;;;;;;;;;9.50;99.90;;;;;;5129556;27;19995;-76
2021/01/29 03:21:35;;;;;;;;;;;9.50;99.90;;;;;;5103496;28;19968;-76
2021/01/29 03:24:04;;;;;;;;;;;9.50;99.90;;;;;;5135044;27;19923;-77
2021/01/29 03:26:35;;;;;;;;;;;9.50;99.90;;;;;;5134210;27;19930;-76
2021/01/29 03:29:03;;;;;;;;;;;9.50;99.90;;;;;;5144682;27;19937;-75
2021/01/29 03:31:29;;;;;;;;;;;9.60;99.90;;;;;;5129269;27;20482;-76
2021/01/29 03:34:06;;;;;;;;;;;9.60;99.90;;;;;;5118138;27;20006;-77
2021/01/29 03:36:35;;;;;;;;;;;9.70;99.90;;;;;;5129373;27;19915;-76
2021/01/29 03:39:03;;;;;;;;;;;9.60;99.90;;;;;;5124499;27;20423;-76
2021/01/29 03:41:30;;;;;;;;;;;9.70;99.90;;;;;;5126506;27;19964;-75
2021/01/29 03:44:13;;;;;;;;;;;9.70;99.90;;;;;;5105777;27;20324;-76
2021/01/29 03:46:55;;;;;;;;;;;9.70;99.90;;;;;;5132911;27;20394;-77
2021/01/29 03:49:29;;;;;;;;;;;9.60;99.90;;;;;;5137852;27;20375;-75
2021/01/29 03:51:55;;;;;;;;;;;9.60;99.90;;;;;;5134334;27;19925;-75
2021/01/29 03:54:43;;;;;;;;;;;9.70;99.90;;;;;;5144635;27;19983;-75
2021/01/29 03:57:27;;;;;;;;;;;9.70;99.90;;;;;;5137539;27;19916;-74
2021/01/29 04:00:02;;;;;;;;;;;9.70;99.90;;;;;;5116283;27;19911;-76
2021/01/29 04:02:29;;;;;;;;;;;9.70;99.90;;;;;;5125450;27;20029;-75
2021/01/29 04:05:01;;;;;;;;;;;9.80;99.90;;;;;;5136584;27;19907;-75
2021/01/29 04:07:33;;;;;;;;;;;9.80;99.90;;;;;;5136375;27;19911;-75
2021/01/29 04:10:10;;;;;;;;;;;9.80;99.90;;;;;;5137374;27;19907;-75
2021/01/29 04:12:54;;;;;;;;;;;9.70;99.90;;;;;;5128523;27;19920;-75
2021/01/29 04:15:20;;;;;;;;;;;9.70;99.90;;;;;;5125723;27;20455;-76
2021/01/29 04:17:51;;;;;;;;;;;9.70;99.90;;;;;;5126404;27;19916;-75
2021/01/29 04:20:35;;;;;;;;;;;9.70;99.90;;;;;;5132046;27;19919;-76
2021/01/29 04:23:03;;;;;;;;;;;9.70;99.90;;;;;;5133726;27;20375;-76
2021/01/29 04:25:34;;;;;;;;;;;9.60;99.90;;;;;;5122677;27;19912;-76
2021/01/29 04:28:02;;;;;;;;;;;9.60;99.90;;;;;;5132074;27;20394;-76
2021/01/29 04:30:30;;;;;;;;;;;9.60;99.90;;;;;;5127698;27;19933;-76
2021/01/29 04:33:08;;;;;;;;;;;9.60;99.90;;;;;;5118897;27;19911;-76
2021/01/29 04:35:35;;;;;;;;;;;9.60;99.90;;;;;;5123354;27;19914;-76
2021/01/29 04:38:24;;;;;;;;;;;9.60;99.90;;;;;;5121657;27;19923;-76
2021/01/29 04:40:57;;;;;;;;;;;9.60;99.90;;;;;;5127882;27;19951;-76
2021/01/29 04:43:45;;;;;;;;;;;9.60;99.90;;;;;;5123016;27;19912;-76
2021/01/29 04:46:22;;;;;;;;;;;9.60;99.90;;;;;;5131774;27;19950;-76
2021/01/29 04:48:53;;;;;;;;;;;9.60;99.90;;;;;;5127128;27;20301;-75
2021/01/29 04:51:21;;;;;;;;;;;9.60;99.90;;;;;;5127119;27;20045;-76
2021/01/29 04:53:50;;;;;;;;;;;9.60;99.90;;;;;;5124032;28;19912;-76
2021/01/29 04:56:34;;;;;;;;;;;9.60;99.90;;;;;;5108472;28;19916;-76
2021/01/29 04:58:59;;;;;;;;;;;9.60;99.90;;;;;;5109763;27;19919;-76
2021/01/29 05:01:42;;;;;;;;;;;9.60;99.90;;;;;;5106695;27;19923;-75
2021/01/29 05:04:26;;;;;;;;;;;9.50;99.90;;;;;;5129547;28;19911;-76
2021/01/29 05:06:55;;;;;;;;;;;9.50;99.90;;;;;;5129534;27;19911;-76
2021/01/29 05:09:26;;;;;;;;;;;9.50;99.90;;;;;;5114551;28;19922;-76
2021/01/29 05:12:09;;;;;;;;;;;9.40;99.90;;;;;;5121011;28;19975;-75
2021/01/29 05:14:47;;;;;;;;;;;9.40;99.90;;;;;;5104659;28;19912;-75
2021/01/29 05:17:20;;;;;;;;;;;9.40;99.90;;;;;;5124689;28;19923;-78
2021/01/29 05:19:55;;;;;;;;;;;9.40;99.90;;;;;;5134067;28;19912;-76
2021/01/29 05:22:20;;;;;;;;;;;9.40;99.90;;;;;;5129850;28;19912;-76
2021/01/29 05:24:46;;;;;;;;;;;9.40;99.90;;;;;;5121966;28;20069;-75
2021/01/29 05:27:14;;;;;;;;;;;9.50;99.90;;;;;;5130507;28;19917;-75
2021/01/29 05:29:40;;;;;;;;;;;9.50;99.90;;;;;;5127425;28;19916;-76
2021/01/29 05:32:05;;;;;;;;;;;9.50;99.90;;;;;;5135800;28;19911;-77
2021/01/29 05:34:43;;;;;;;;;;;9.50;99.90;;;;;;5103433;28;19915;-76
2021/01/29 05:37:18;;;;;;;;;;;9.50;99.90;;;;;;5116932;28;19916;-75
2021/01/29 05:40:01;;;;;;;;;;;9.40;99.90;;;;;;5134116;27;19954;-76
2021/01/29 05:42:36;;;;;;;;;;;9.40;99.90;;;;;;5113617;28;20026;-77
2021/01/29 05:45:08;;;;;;;;;;;9.40;99.90;;;;;;5135712;27;19920;-77
2021/01/29 05:47:42;;;;;;;;;;;9.50;99.90;;;;;;5127522;27;19995;-76
2021/01/29 05:50:30;;;;;;;;;;;9.50;99.90;;;;;;5126981;27;19911;-75
2021/01/29 05:53:05;;;;;;;;;;;9.40;99.90;;;;;;5101029;28;19912;-77
2021/01/29 05:55:37;;;;;;;;;;;9.40;99.90;;;;;;5129149;27;20306;-76
2021/01/29 05:58:15;;;;;;;;;;;9.40;99.90;;;;;;5127410;27;19930;-75
2021/01/29 06:01:04;;;;;;;;;;;9.30;99.90;;;;;;5126099;27;20364;-75
2021/01/29 06:03:40;;;;;;;;;;;9.20;99.90;;;;;;5129329;27;19954;-74
2021/01/29 06:06:24;;;;;;;;;;;9.20;99.90;;;;;;5124037;27;19912;-76
2021/01/29 06:09:05;;;;;;;;;;;9.20;99.90;;;;;;5122248;27;19923;-75
2021/01/29 06:11:46;;;;;;;;;;;9.20;99.90;;;;;;5119414;27;20442;-76
2021/01/29 06:14:32;;;;;;;;;;;9.20;99.90;;;;;;5117993;27;19919;-76
2021/01/29 06:16:58;;;;;;;;;;;9.20;99.90;;;;;;5125646;27;19923;-76
2021/01/29 06:19:29;;;;;;;;;;;9.20;99.90;;;;;;5128037;27;19912;-76
2021/01/29 06:22:01;;;;;;;;;;;9.20;99.90;;;;;;5124187;27;20363;-75
2021/01/29 06:24:39;;;;;;;;;;;9.30;99.90;;;;;;5111625;27;19954;-76
2021/01/29 06:27:23;;;;;;;;;;;9.20;99.90;;;;;;5132440;27;19911;-75
2021/01/29 06:30:02;;;;;;;;;;;9.20;99.90;;;;;;5131420;27;19940;-75
2021/01/29 06:32:38;;;;;;;;;;;9.20;99.90;;;;;;5127529;27;20301;-76
2021/01/29 06:35:07;;;;;;;;;;;9.20;99.90;;;;;;5123739;27;19912;-75
2021/01/29 06:37:53;;;;;;;;;;;9.20;99.90;;;;;;5127668;27;20026;-76
2021/01/29 06:40:30;;;;;;;;;;;9.20;99.90;;;;;;5125793;27;19918;-75
2021/01/29 06:43:03;;;;;;;;;;;9.20;99.90;;;;;;5126139;27;19947;-76
2021/01/29 06:45:33;;;;;;;;;;;9.30;99.90;;;;;;5129833;27;19911;-76
2021/01/29 06:48:18;;;;;;;;;;;9.30;99.90;;;;;;5135438;27;20002;-76
2021/01/29 06:50:55;;;;;;;;;;;9.40;99.90;;;;;;5116081;27;20002;-77
2021/01/29 06:53:44;;;;;;;;;;;9.50;99.90;;;;;;5122272;27;20293;-74
2021/01/29 06:56:15;;;;;;;;;;;9.50;99.90;;;;;;5136672;27;19978;-75
2021/01/29 06:58:48;;;;;;;;;;;9.60;99.90;;;;;;5135675;27;20269;-75
2021/01/29 07:01:22;;;;;;;;;;;9.60;99.90;;;;;;5125938;27;19908;-74
2021/01/29 07:03:50;;;;;;;;;;;9.60;99.90;;;;;;5133914;27;19918;-74
2021/01/29 07:06:21;;;;;;;;;;;9.60;99.90;;;;;;5134353;27;20003;-74
2021/01/29 07:08:56;;;;;;;;;;;9.70;99.90;;;;;;5122960;28;19998;-74
2021/01/29 07:11:26;;;;;;;;;;;9.80;99.90;;;;;;5142032;27;19918;-77
2021/01/29 07:13:52;;;;;;;;;;;9.70;99.90;;;;;;5140390;27;19914;-74
2021/01/29 07:16:17;;;;;;;;;;;9.80;99.90;;;;;;5134999;27;19916;-74
2021/01/29 07:18:56;;;;;;;;;;;9.80;99.90;;;;;;5133977;27;19918;-74
2021/01/29 07:21:33;;;;;;;;;;;9.90;99.90;;;;;;5138989;27;19931;-75
2021/01/29 07:24:11;;;;;;;;;;;9.80;99.90;;;;;;5136431;27;19908;-76
2021/01/29 07:26:53;;;;;;;;;;;9.80;99.90;;;;;;5110349;27;20397;-74
2021/01/29 07:29:25;;;;;;;;;;;9.90;99.90;;;;;;5136849;27;19911;-75
2021/01/29 07:32:04;;;;;;;;;;;9.90;99.90;;;;;;5128000;27;19915;-76
2021/01/29 07:34:32;;;;;;;;;;;9.90;99.90;;;;;;5132874;27;19915;-75
2021/01/29 07:37:04;;;;;;;;;;;9.90;99.90;;;;;;5130740;27;19915;-73
2021/01/29 07:39:44;;;;;;;;;;;9.90;99.90;;;;;;5121307;27;19922;-77
2021/01/29 07:42:32;;;;;;;;;;;9.90;99.90;;;;;;5123202;27;19918;-74
2021/01/29 07:45:16;;;;;;;;;;;10.00;99.90;;;;;;5117965;27;19912;-75
2021/01/29 07:48:01;;;;;;;;;;;10.00;99.90;;;;;;5119945;27;19950;-75
2021/01/29 07:50:50;;;;;;;;;;;10.10;99.90;;;;;;5110843;27;19998;-74
2021/01/29 07:53:21;;;;;;;;;;;10.10;99.90;;;;;;5103549;27;19915;-75
2021/01/29 07:55:55;;;;;;;;;;;10.10;99.90;;;;;;5130361;27;19912;-76
2021/01/29 07:58:26;;;;;;;;;;;10.10;99.90;;;;;;5131013;27;19915;-74
2021/01/29 08:00:58;;;;;;;;;;;10.30;99.90;;;;;;5136379;27;19994;-76
2021/01/29 08:03:36;;;;;;;;;;;10.30;99.90;;;;;;5127736;27;19912;-76
2021/01/29 08:06:23;;;;;;;;;;;10.30;99.90;;;;;;5112576;27;20339;-76
2021/01/29 08:09:20;;;;;;;;;;;10.40;99.90;;;;;;5130363;27;19911;-76
2021/01/29 08:11:48;;;;;;;;;;;10.40;99.90;;;;;;5081386;27;19967;-75
2021/01/29 08:14:16;;;;;;;;;;;10.50;99.90;;;;;;5127588;27;19936;-73
2021/01/29 08:16:44;;;;;;;;;;;10.60;99.90;;;;;;5132458;27;19916;-76
2021/01/29 08:19:25;;;;;;;;;;;10.60;99.90;;;;;;5133745;27;19948;-76
2021/01/29 08:21:57;;;;;;;;;;;10.60;99.90;;;;;;5132021;27;19954;-74
2021/01/29 08:24:39;;;;;;;;;;;10.60;99.90;;;;;;5135426;27;19912;-75
2021/01/29 08:27:04;;;;;;;;;;;10.70;99.90;;;;;;5138527;27;19967;-75
2021/01/29 08:29:45;;;;;;;;;;;10.70;99.90;;;;;;5137105;27;19952;-74
2021/01/29 08:32:23;;;;;;;;;;;10.70;99.90;;;;;;5133732;27;19916;-74
2021/01/29 08:34:57;;;;;;;;;;;10.70;99.90;;;;;;5134211;27;19916;-75
2021/01/29 08:37:24;;;;;;;;;;;10.70;99.90;;;;;;5139260;27;20007;-74
2021/01/29 08:39:56;;;;;;;;;;;10.70;99.90;;;;;;5139389;27;19912;-75
2021/01/29 08:42:28;;;;;;;;;;;10.70;99.90;;;;;;5135110;27;19951;-74
2021/01/29 08:45:12;;;;;;;;;;;10.70;99.90;;;;;;5127966;27;19926;-75
2021/01/29 08:47:54;;;;;;;;;;;10.70;99.90;;;;;;5130998;27;20445;-76
2021/01/29 08:50:28;;;;;;;;;;;10.70;99.90;;;;;;5130990;27;19911;-74
2021/01/29 08:53:12;;;;;;;;;;;10.70;99.90;;;;;;5120412;28;20371;-76
2021/01/29 08:55:46;;;;;;;;;;;10.70;99.90;;;;;;5131946;27;20398;-74
2021/01/29 08:58:30;;;;;;;;;;;10.70;99.90;;;;;;5131772;28;20404;-76
2021/01/29 09:01:01;;;;;;;;;;;10.70;99.90;;;;;;5115482;28;19934;-76
2021/01/29 09:03:36;;;;;;;;;;;10.80;99.90;;;;;;5128753;28;20363;-76
2021/01/29 09:06:16;;;;;;;;;;;10.80;99.20;;;;;;5108352;28;19919;-76
2021/01/29 09:08:42;;;;;;;;;;;11.00;27.70;;;;;;5126485;27;20345;-76
2021/01/29 09:11:19;;;;;;;;;;;11.10;19.80;;;;;;5125077;28;19915;-76
2021/01/29 09:13:51;;;;;;;;;;;11.10;37.60;;;;;;5131868;28;20061;-75
2021/01/29 09:16:31;;;;;;;;;;;11.10;3.30;;;;;;5126727;28;19971;-75
2021/01/29 09:18:58;;;;;;;;;;;11.00;31.50;;;;;;5133049;27;19912;-75
2021/01/29 09:21:32;;;;;;;;;;;10.90;48.00;;;;;;5135706;27;19919;-75
2021/01/29 09:23:58;;;;;;;;;;;11.00;3.50;;;;;;5137062;27;20393;-76
2021/01/29 09:26:43;;;;;;;;;;;11.10;1.00;;;;;;5137070;27;19912;-75
2021/01/29 09:29:19;;;;;;;;;;;11.20;1.00;;;;;;5094916;27;19993;-76
2021/01/29 09:31:45;;;;;;;;;;;11.40;1.00;;;;;;5118991;27;19912;-76
2021/01/29 09:34:20;;;;;;;;;;;11.60;1.00;;;;;;5137992;27;19922;-75
2021/01/29 09:36:47;;;;;;;;;;;11.60;1.00;;;;;;5127115;27;19923;-75
2021/01/29 09:39:22;;;;;;;;;;;11.80;99.90;;;;;;5121541;27;19919;-74
2021/01/29 09:41:53;;;;;;;;;;;11.80;99.90;;;;;;5126094;27;20562;-75
2021/01/29 09:44:21;;;;;;;;;;;11.90;1.00;;;;;;5129730;27;19918;-77
2021/01/29 09:46:51;;;;;;;;;;;12.00;99.90;;;;;;5135207;27;19964;-75
2021/01/29 09:49:19;;;;;;;;;;;12.00;99.90;;;;;;5119017;27;19911;-76
2021/01/29 09:51:55;;;;;;;;;;;11.90;99.90;;;;;;5129197;27;19911;-77
2021/01/29 09:54:25;;;;;;;;;;;11.80;99.90;;;;;;5131173;27;19916;-75
2021/01/29 09:56:53;;;;;;;;;;;11.70;99.90;;;;;;5099385;28;20370;-76
2021/01/29 09:59:29;;;;;;;;;;;11.70;99.90;;;;;;5098225;27;19954;-77
2021/01/29 10:02:04;;;;;;;;;;;11.70;99.90;;;;;;5128933;27;19998;-76
2021/01/29 10:04:53;;;;;;;;;;;11.70;99.90;;;;;;5102811;27;19961;-75
2021/01/29 10:07:22;;;;;;;;;;;11.70;99.90;;;;;;5136075;27;19920;-77
2021/01/29 10:09:58;;;;;;;;;;;11.60;99.90;;;;;;5130112;27;20402;-76
2021/01/29 10:12:26;;;;;;;;;;;11.60;99.90;;;;;;5132062;27;20082;-76
2021/01/29 10:15:03;;;;;;;;;;;11.60;99.90;;;;;;5136991;27;19949;-76
2021/01/29 10:17:41;;;;;;;;;;;11.60;99.90;;;;;;5116916;27;19923;-77
2021/01/29 10:20:09;;;;;;;;;;;11.50;99.90;;;;;;5142387;27;19912;-76
2021/01/29 10:22:42;;;;;;;;;;;11.50;99.90;;;;;;5150612;27;19922;-75
2021/01/29 10:25:25;;;;;;;;;;;11.50;99.90;;;;;;5129089;27;19962;-76
2021/01/29 10:27:57;;;;;;;;;;;11.30;99.90;;;;;;5122258;27;19916;-76
2021/01/29 10:30:28;;;;;;;;;;;11.20;99.90;;;;;;5131393;27;19911;-74
2021/01/29 10:33:12;;;;;;;;;;;11.30;99.90;;;;;;5139030;27;19918;-76
2021/01/29 10:35:48;;;;;;;;;;;11.40;99.90;;;;;;5099495;28;19912;-75
2021/01/29 10:38:33;;;;;;;;;;;11.50;99.90;;;;;;5109486;27;20974;-77
2021/01/29 10:41:02;;;;;;;;;;;11.70;69.90;;;;;;5115188;27;19911;-76
2021/01/29 10:43:27;;;;;;;;;;;11.60;90.50;;;;;;5113280;27;19912;-76
2021/01/29 10:46:08;;;;;;;;;;;11.70;3.50;;;;;;5127933;27;20031;-77
2021/01/29 10:48:52;;;;;;;;;;;11.80;36.00;;;;;;5127604;27;20028;-76
2021/01/29 10:51:17;;;;;;;;;;;11.80;32.30;;;;;;5130786;27;19911;-75
2021/01/29 10:53:43;;;;;;;;;;;11.90;1.00;;;;;;5108916;27;19918;-75
2021/01/29 10:56:13;;;;;;;;;;;12.00;1.00;;;;;;5135167;27;19911;-77
2021/01/29 10:58:45;;;;;;;;;;;12.10;1.00;;;;;;5127701;27;20369;-75
2021/01/29 11:01:19;;;;;;;;;;;12.20;1.00;;;;;;5110378;27;19954;-75
2021/01/29 11:03:50;;;;;;;;;;;12.20;1.00;;;;;;5130793;27;19912;-75
2021/01/29 11:06:17;;;;;;;;;;;12.30;99.90;;;;;;5126289;27;20248;-75
2021/01/29 11:08:46;;;;;;;;;;;12.40;99.90;;;;;;5130848;27;20071;-77
2021/01/29 11:11:23;;;;;;;;;;;12.10;1.00;;;;;;5133326;27;19912;-75
2021/01/29 11:13:55;;;;;;;;;;;12.10;1.00;;;;;;5132062;27;19918;-74
2021/01/29 11:16:41;;;;;;;;;;;12.30;5.10;;;;;;5130088;27;19916;-77
2021/01/29 11:19:11;;;;;;;;;;;12.10;1.00;;;;;;5116059;27;19921;-76
2021/01/29 11:21:43;;;;;;;;;;;12.10;14.40;;;;;;5132323;27;19918;-75
2021/01/29 11:24:47;;;;;;;;;;;12.10;33.20;;;;;;5133663;27;19916;-76
2021/01/29 11:27:19;;;;;;;;;;;12.10;1.00;;;;;;5028838;28;19928;-76
2021/01/29 11:29:48;;;;;;;;;;;12.10;97.20;;;;;;5025816;28;19956;-76
2021/01/29 11:32:35;;;;;;;;;;;12.10;99.90;;;;;;5077583;27;19911;-76
2021/01/29 11:35:04;;;;;;;;;;;12.00;82.00;;;;;;5126863;27;20289;-76
2021/01/29 11:37:40;;;;;;;;;;;11.80;99.90;;;;;;5132279;27;19919;-76
2021/01/29 11:40:06;;;;;;;;;;;11.70;90.70;;;;;;5129665;27;19956;-76
2021/01/29 11:42:38;;;;;;;;;;;11.70;99.90;;;;;;5124674;27;19918;-75
2021/01/29 11:45:14;;;;;;;;;;;11.70;99.90;;;;;;5129528;27;20010;-76
2021/01/29 11:47:45;;;;;;;;;;;11.80;99.90;;;;;;5132977;27;19912;-76
2021/01/29 11:50:28;;;;;;;;;;;11.70;99.90;;;;;;5136662;27;19919;-77
2021/01/29 11:52:56;;;;;;;;;;;11.50;99.90;;;;;;5102614;27;19943;-77
2021/01/29 11:55:25;;;;;;;;;;;11.50;99.90;;;;;;5134503;27;19920;-76
2021/01/29 11:57:56;;;;;;;;;;;11.50;99.90;;;;;;5135878;27;19941;-77
2021/01/29 12:00:33;;;;;;;;;;;11.60;99.90;;;;;;5133547;27;19915;-75
2021/01/29 12:03:03;;;;;;;;;;;11.70;99.90;;;;;;5127984;27;19912;-76
2021/01/29 12:05:56;;;;;;;;;;;11.70;99.90;;;;;;5131228;27;19919;-77
2021/01/29 12:08:29;;;;;;;;;;;11.80;99.90;;;;;;5123087;27;19912;-76
2021/01/29 12:10:59;;;;;;;;;;;12.00;99.70;;;;;;5126287;27;19916;-77
2021/01/29 12:13:39;;;;;;;;;;;12.20;20.30;;;;;;5135934;27;20006;-77
2021/01/29 12:16:17;;;;;;;;;;;12.00;30.20;;;;;;5128273;27;19933;-76
2021/01/29 12:18:46;;;;;;;;;;;11.90;50.50;;;;;;5132041;27;20418;-75
2021/01/29 12:21:27;;;;;;;;;;;11.80;1.00;;;;;;5129821;27;19912;-75
2021/01/29 12:24:02;;;;;;;;;;;11.80;1.00;;;;;;5125040;27;19919;-75
2021/01/29 12:26:46;;;;;;;;;;;11.70;1.00;;;;;;5131115;27;19984;-75
2021/01/29 12:29:21;;;;;;;;;;;11.60;1.00;;;;;;5130969;27;19912;-75
2021/01/29 12:31:46;;;;;;;;;;;11.50;1.00;;;;;;5132753;27;20282;-74
2021/01/29 12:34:14;;;;;;;;;;;11.60;1.00;;;;;;5121319;27;20022;-75
2021/01/29 12:36:40;;;;;;;;;;;11.60;1.00;;;;;;5108476;27;20014;-76
2021/01/29 12:39:10;;;;;;;;;;;11.70;1.00;;;;;;5125416;27;20334;-76
2021/01/29 12:41:40;;;;;;;;;;;11.70;7.60;;;;;;5105674;27;19919;-76
2021/01/29 12:44:18;;;;;;;;;;;11.80;1.00;;;;;;5126362;27;19912;-73
2021/01/29 12:46:56;;;;;;;;;;;11.80;1.00;;;;;;5100151;27;20358;-73
2021/01/29 12:49:40;;;;;;;;;;;11.80;1.00;;;;;;5098457;27;19942;-74
2021/01/29 12:52:12;;;;;;;;;;;11.80;6.30;;;;;;5123713;27;19916;-74
2021/01/29 12:54:44;;;;;;;;;;;11.60;90.00;;;;;;5103110;22;20009;-72
2021/01/29 12:57:18;;;;;;;;;;;11.60;83.70;;;;;;5057946;28;19920;-77
2021/01/29 12:59:59;;;;;;;;;;;11.60;99.90;;;;;;5044938;28;20384;-78
2021/01/29 13:02:27;;;;;;;;;;;11.40;99.90;;;;;;5051821;28;19916;-78
2021/01/29 13:05:01;;;;;;;;;;;11.40;99.90;;;;;;5048731;28;19959;-78
2021/01/29 13:07:27;;;;;;;;;;;11.40;99.90;;;;;;5056448;28;19912;-76
2021/01/29 13:09:53;;;;;;;;;;;11.40;99.90;;;;;;5047196;28;19912;-79
2021/01/29 13:12:21;;;;;;;;;;;11.50;99.90;;;;;;5060373;28;20338;-77
2021/01/29 13:15:06;;;;;;;;;;;11.50;99.90;;;;;;5059983;28;19974;-77
2021/01/29 13:17:33;;;;;;;;;;;11.60;99.90;;;;;;5073915;28;19917;-78
2021/01/29 13:20:00;;;;;;;;;;;11.50;99.90;;;;;;5056528;28;19927;-79
2021/01/29 13:22:32;;;;;;;;;;;11.50;99.90;;;;;;5062364;28;19905;-77
2021/01/29 13:25:09;;;;;;;;;;;11.50;99.90;;;;;;5078913;28;20003;-77
2021/01/29 13:27:44;;;;;;;;;;;11.60;99.90;;;;;;5071755;28;19924;-78
2021/01/29 13:30:13;;;;;;;;;;;11.60;99.90;;;;;;5059107;28;19935;-78
2021/01/29 13:32:40;;;;;;;;;;;11.50;99.90;;;;;;5070894;28;19912;-77
2021/01/29 13:35:07;;;;;;;;;;;11.40;99.90;;;;;;5082372;28;19966;-77
2021/01/29 13:37:33;;;;;;;;;;;11.50;99.90;;;;;;5069298;28;19948;-77
2021/01/29 13:40:10;;;;;;;;;;;11.50;99.90;;;;;;5078922;28;19944;-77
2021/01/29 13:42:37;;;;;;;;;;;11.60;99.90;;;;;;5067226;28;19920;-78
2021/01/29 13:45:21;;;;;;;;;;;11.60;99.90;;;;;;5062645;28;19921;-78
2021/01/29 13:47:48;;;;;;;;;;;11.70;99.90;;;;;;5059020;28;19913;-77
2021/01/29 13:50:17;;;;;;;;;;;11.70;99.90;;;;;;5046507;28;19996;-78
2021/01/29 13:52:56;;;;;;;;;;;11.80;99.90;;;;;;5061929;28;19913;-79
2021/01/29 13:55:25;;;;;;;;;;;11.70;99.90;;;;;;5059410;28;21932;-78
2021/01/29 13:57:54;;;;;;;;;;;11.70;99.90;;;;;;5045828;28;19982;-79
2021/01/29 14:00:24;;;;;;;;;;;11.80;99.90;;;;;;5058861;28;19919;-77
2021/01/29 14:03:00;;;;;;;;;;;11.80;99.90;;;;;;5060670;28;19983;-78
2021/01/29 14:05:26;;;;;;;;;;;11.80;99.90;;;;;;5040518;28;19936;-77
2021/01/29 14:07:56;;;;;;;;;;;11.70;99.90;;;;;;5047669;28;19917;-77
2021/01/29 14:10:25;;;;;;;;;;;11.70;99.90;;;;;;5068968;28;19912;-78
2021/01/29 14:13:03;;;;;;;;;;;11.50;99.90;;;;;;5052302;28;19912;-78
2021/01/29 14:15:32;;;;;;;;;;;11.60;99.90;;;;;;5066744;28;19913;-77
2021/01/29 14:18:04;;;;;;;;;;;11.40;99.90;;;;;;5072657;28;19943;-78
2021/01/29 14:20:44;;;;;;;;;;;11.40;99.90;;;;;;5068470;28;19975;-78
2021/01/29 14:23:19;;;;;;;;;;;11.30;1.00;;;;;;5060327;28;19913;-78
2021/01/29 14:25:50;;;;;;;;;;;11.20;1.00;;;;;;5050533;28;19924;-77
2021/01/29 14:28:39;;;;;;;;;;;11.20;1.00;;;;;;5074574;28;19949;-78
2021/01/29 14:31:10;;;;;;;;;;;11.20;1.00;;;;;;5066138;28;19913;-80
2021/01/29 14:33:44;;;;;;;;;;;11.10;1.00;;;;;;5061519;28;20004;-79
2021/01/29 14:36:17;;;;;;;;;;;11.10;1.00;;;;;;5046473;28;19959;-79
2021/01/29 14:38:55;;;;;;;;;;;11.10;99.90;;;;;;5053530;28;20000;-79
2021/01/29 14:41:41;;;;;;;;;;;11.10;99.90;;;;;;5045690;28;19966;-79
2021/01/29 14:44:19;;;;;;;;;;;11.20;1.00;;;;;;5061234;28;19999;-79
2021/01/29 14:46:53;;;;;;;;;;;11.20;99.90;;;;;;5069567;28;19921;-80
2021/01/29 14:49:29;;;;;;;;;;;11.20;99.90;;;;;;5071487;28;20350;-78
2021/01/29 14:52:08;;;;;;;;;;;11.30;1.00;;;;;;5067741;28;20003;-78
2021/01/29 14:54:36;;;;;;;;;;;11.30;1.00;;;;;;5050650;28;19951;-78
2021/01/29 14:57:04;;;;;;;;;;;11.20;1.00;;;;;;5064431;28;19972;-78
2021/01/29 14:59:33;;;;;;;;;;;11.10;1.00;;;;;;5048962;28;19932;-79
2021/01/29 15:02:01;;;;;;;;;;;11.00;1.00;;;;;;5066014;28;19920;-78